Private Wetterstation Ehingen
Wetterdaten: aktuell Montag, 22.05.2017 21:45
Datum Zeit Temperatur Luftfeuchte Luftdruck Regen Wind Richtung Richtung Sonnenschein Taupunkt Windchill Windben
22.05.2017 21:45 16,2 C 60 % 1015,8 hPa 0,0 l/m 0,0 km/h (0 Bft) O-NO 63 0 min 8,4 C 16,2 C 0,0 km/h (0 Bft)
22.05.2017 21:40 16,4 C 60 % 1015,8 hPa 0,0 l/m 0,0 km/h (0 Bft) O-NO 63 0 min 8,6 C 16,4 C 0,0 km/h (0 Bft)
22.05.2017 21:35 16,6 C 59 % 1015,8 hPa 0,0 l/m 0,0 km/h (0 Bft) O-NO 63 0 min 8,6 C 16,6 C 0,0 km/h (0 Bft)
22.05.2017 21:30 16,8 C 59 % 1015,7 hPa 0,0 l/m 0,0 km/h (0 Bft) O-NO 63 0 min 8,7 C 16,8 C 0,0 km/h (0 Bft)
22.05.2017 21:25 17,0 C 58 % 1015,7 hPa 0,0 l/m 0,0 km/h (0 Bft) O-NO 63 0 min 8,7 C 17,0 C 0,0 km/h (0 Bft)
22.05.2017 21:20 17,2 C 58 % 1015,6 hPa 0,0 l/m 0,0 km/h (0 Bft) O-NO 63 0 min 8,9 C 17,2 C 0,0 km/h (0 Bft)
22.05.2017 21:15 17,4 C 58 % 1015,6 hPa 0,0 l/m 0,0 km/h (0 Bft) O-NO 63 0 min 9,1 C 17,4 C 0,0 km/h (0 Bft)
22.05.2017 21:10 17,6 C 57 % 1015,5 hPa 0,0 l/m 0,0 km/h (0 Bft) O-NO 63 0 min 9,0 C 17,6 C 0,0 km/h (0 Bft)
22.05.2017 21:05 17,9 C 57 % 1015,5 hPa 0,0 l/m 0,0 km/h (0 Bft) O-NO 63 0 min 9,3 C 17,9 C 0,0 km/h (0 Bft)
22.05.2017 21:00 18,1 C 56 % 1015,4 hPa 0,0 l/m 0,0 km/h (0 Bft) O-NO 63 0 min 9,2 C 18,1 C 0,0 km/h (0 Bft)
22.05.2017 20:55 18,4 C 56 % 1015,4 hPa 0,0 l/m 0,0 km/h (0 Bft) O-NO 63 0 min 9,5 C 18,4 C 0,0 km/h (0 Bft)
22.05.2017 20:50 18,6 C 56 % 1015,3 hPa 0,0 l/m 0,0 km/h (0 Bft) O-NO 63 0 min 9,6 C 18,6 C 0,0 km/h (0 Bft)
22.05.2017 20:45 18,8 C 56 % 1015,3 hPa 0,0 l/m 0,0 km/h (0 Bft) O-NO 63 0 min 9,8 C 18,8 C 0,0 km/h (0 Bft)
22.05.2017 20:40 18,9 C 55 % 1015,3 hPa 0,0 l/m 0,0 km/h (0 Bft) O-NO 63 0 min 9,7 C 18,9 C 0,0 km/h (0 Bft)
22.05.2017 20:35 19,0 C 55 % 1015,3 hPa 0,0 l/m 0,0 km/h (0 Bft) O-NO 63 0 min 9,8 C 19,0 C 0,0 km/h (0 Bft)
22.05.2017 20:30 19,1 C 54 % 1015,2 hPa 0,0 l/m 0,0 km/h (0 Bft) O-NO 63 0 min 9,6 C 19,1 C 0,0 km/h (0 Bft)
22.05.2017 20:25 19,2 C 53 % 1015,2 hPa 0,0 l/m 0,0 km/h (0 Bft) O-NO 67 0 min 9,4 C 19,2 C 0,0 km/h (0 Bft)
22.05.2017 20:20 19,3 C 53 % 1015,2 hPa 0,0 l/m 0,0 km/h (0 Bft) O-NO 67 0 min 9,5 C 19,3 C 0,0 km/h (0 Bft)
22.05.2017 20:15 19,3 C 52 % 1015,2 hPa 0,0 l/m 0,0 km/h (0 Bft) O-NO 67 0 min 9,2 C 19,3 C 0,0 km/h (0 Bft)
22.05.2017 20:00 19,4 C 52 % 1015,2 hPa 0,0 l/m 0,0 km/h (0 Bft) O-NO 63 5 min 9,3 C 19,4 C 0,0 km/h (0 Bft)
22.05.2017 19:55 19,5 C 52 % 1015,2 hPa 0,0 l/m 0,0 km/h (0 Bft) O-NO 73 5 min 9,4 C 19,5 C 0,0 km/h (0 Bft)
_ Min-Zeit 06:55 17:30 15:45 - 21:45 - - - 06:25 06:55 21:45
Minimum _ 8,2 C 45 % 1014,3 hPa - 0,0 km/h (0 Bft) - - - 5,5 C 8,2 C 0,0 km/h (0 Bft)
_ Max-Zeit 15:45 07:40 01:00 21:45 14:55 - - 20:00 15:35 15:45 08:55
Maximum _ 23,6 C 90 % 1020,9 hPa 0,0 l/m 11,4 km/h
W-NW (2 Bft)
- - 5 min 11,2 C 23,6 C 17,1 km/h
O-NO (3 Bft)
Durchschnitt _ 16,3 C 62 % 1017,3 hPa #0,0 l/m 2,9 km/h (1 Bft) O-NO - #14:05 h 8,6 C 16,1 C 4,7 km/h (1 Bft)